createdAt,value
2023-03-02T00:01:38.986Z,102796.66
2023-03-02T00:04:09.788Z,102801.78
2023-03-02T00:06:37.103Z,102806.19
2023-03-02T00:09:06.126Z,102739.75
2023-03-02T00:11:35.709Z,102790.53
2023-03-02T00:14:02.655Z,102801.88
2023-03-02T00:16:29.445Z,102766.50
2023-03-02T00:18:56.407Z,102789.84
2023-03-02T00:21:24.617Z,102790.78
2023-03-02T00:23:52.299Z,102786.44
2023-03-02T00:26:19.638Z,102800.22
2023-03-02T00:28:46.805Z,102791.47
2023-03-02T00:31:13.561Z,102716.41
2023-03-02T00:33:40.293Z,102789.50
2023-03-02T00:36:14.179Z,102771.28
2023-03-02T00:38:40.839Z,102772.25
2023-03-02T00:41:07.711Z,102767.09
2023-03-02T00:43:34.315Z,102779.16
2023-03-02T00:46:09.287Z,102774.66
2023-03-02T00:48:36.158Z,102768.56
2023-03-02T00:51:02.957Z,102764.13
2023-03-02T00:53:29.944Z,102730.50
2023-03-02T00:55:56.718Z,102752.19
2023-03-02T00:58:23.512Z,102762.50
2023-03-02T01:00:50.371Z,102746.03
2023-03-02T01:03:17.393Z,102741.66
2023-03-02T01:05:44.359Z,102729.47
2023-03-02T01:08:11.594Z,102755.28
2023-03-02T01:10:38.918Z,102749.13
2023-03-02T01:13:06.396Z,102735.31
2023-03-02T01:15:34.083Z,102732.78
2023-03-02T01:18:01.222Z,102749.34
2023-03-02T01:20:28.354Z,102748.59
2023-03-02T01:22:55.541Z,102720.91
2023-03-02T01:25:22.238Z,102719.97
2023-03-02T01:27:48.919Z,102715.63
2023-03-02T01:30:15.790Z,102711.19
2023-03-02T01:32:42.534Z,102696.53
2023-03-02T01:35:09.804Z,102733.78
2023-03-02T01:37:36.389Z,102726.16
2023-03-02T01:40:06.525Z,102721.81
2023-03-02T01:42:46.217Z,102689.06
2023-03-02T01:45:41.291Z,102715.81
2023-03-02T01:48:11.158Z,102688.34
2023-03-02T01:50:37.965Z,102689.16
2023-03-02T01:53:05.585Z,102708.91
2023-03-02T01:55:34.123Z,102688.09
2023-03-02T01:58:03.142Z,102682.91
2023-03-02T02:00:37.822Z,102707.84
2023-03-02T02:03:12.817Z,102704.50
2023-03-02T02:05:42.807Z,102692.56
2023-03-02T02:08:10.357Z,102690.97
2023-03-02T02:10:38.433Z,102699.53
2023-03-02T02:13:08.893Z,102699.41
2023-03-02T02:15:35.791Z,102674.53
2023-03-02T02:18:02.526Z,102704.84
2023-03-02T02:20:47.672Z,102703.19
2023-03-02T02:23:26.490Z,102703.44
2023-03-02T02:25:59.428Z,102717.28
2023-03-02T02:28:31.933Z,102701.78
2023-03-02T02:31:10.629Z,102684.56
2023-03-02T02:33:39.420Z,102704.34
2023-03-02T02:36:10.267Z,102705.44
2023-03-02T02:38:38.788Z,102681.34
2023-03-02T02:41:08.945Z,102685.69
2023-03-02T02:43:35.895Z,102685.78
2023-03-02T02:46:03.474Z,102711.84
2023-03-02T02:48:32.478Z,102700.59
2023-03-02T02:51:00.570Z,102671.38
2023-03-02T02:53:41.068Z,102711.00
2023-03-02T02:56:10.286Z,102711.91
2023-03-02T02:58:44.316Z,102595.69
2023-03-02T03:01:14.801Z,102718.13
2023-03-02T03:03:43.883Z,102716.44
2023-03-02T03:06:19.005Z,102713.06
2023-03-02T03:08:49.076Z,102711.28
2023-03-02T03:11:24.469Z,102711.28
2023-03-02T03:14:05.010Z,102711.34
2023-03-02T03:16:33.642Z,102719.06
2023-03-02T03:19:06.679Z,102708.56
2023-03-02T03:21:33.598Z,102628.56
2023-03-02T03:24:00.495Z,102696.56
2023-03-02T03:26:27.231Z,102645.03
2023-03-02T03:28:54.043Z,102640.88
2023-03-02T03:31:20.875Z,102601.34
2023-03-02T03:33:49.194Z,102706.44
2023-03-02T03:36:17.969Z,102659.22
2023-03-02T03:38:44.866Z,102685.91
2023-03-02T03:41:11.758Z,102679.03
2023-03-02T03:43:38.856Z,102692.88
2023-03-02T03:46:05.523Z,102678.16
2023-03-02T03:48:32.305Z,102698.00
2023-03-02T03:51:00.612Z,102693.66
2023-03-02T03:53:28.445Z,102682.53
2023-03-02T03:55:57.166Z,102630.91
2023-03-02T03:58:25.496Z,102670.53
2023-03-02T04:00:53.301Z,102670.50
2023-03-02T04:03:22.361Z,102694.59
2023-03-02T04:05:49.858Z,102703.22
2023-03-02T04:08:16.565Z,102694.66
2023-03-02T04:10:43.754Z,102685.84
2023-03-02T04:13:10.698Z,102675.47
2023-03-02T04:15:38.739Z,102699.59
2023-03-02T04:18:05.461Z,102699.69
2023-03-02T04:20:32.520Z,102692.00
2023-03-02T04:23:00.036Z,102696.16
2023-03-02T04:25:28.579Z,102684.00
2023-03-02T04:27:55.998Z,102660.75
2023-03-02T04:30:25.194Z,102699.63
2023-03-02T04:32:52.364Z,102696.22
2023-03-02T04:35:19.357Z,102663.63
2023-03-02T04:37:47.114Z,102696.38
2023-03-02T04:40:15.313Z,102693.72
2023-03-02T04:42:42.035Z,102696.31
2023-03-02T04:45:09.142Z,102667.78
2023-03-02T04:47:35.858Z,102692.72
2023-03-02T04:50:02.828Z,102683.25
2023-03-02T04:52:29.715Z,102684.13
2023-03-02T04:54:56.539Z,102697.03
2023-03-02T04:57:23.243Z,102682.38
2023-03-02T04:59:50.055Z,102686.72
2023-03-02T05:02:16.955Z,102694.59
2023-03-02T05:04:43.806Z,102684.31
2023-03-02T05:07:10.562Z,102652.69
2023-03-02T05:09:37.441Z,102706.19
2023-03-02T05:12:04.393Z,102679.53
2023-03-02T05:14:31.801Z,102703.63
2023-03-02T05:16:59.338Z,102676.22
2023-03-02T05:19:26.106Z,102695.88
2023-03-02T05:21:52.884Z,102689.84
2023-03-02T05:24:19.707Z,102705.44
2023-03-02T05:26:46.428Z,102691.59
2023-03-02T05:29:13.478Z,102707.13
2023-03-02T05:31:43.480Z,102688.91
2023-03-02T05:34:12.950Z,102701.81
2023-03-02T05:36:40.423Z,102693.09
2023-03-02T05:39:08.640Z,102624.09
2023-03-02T05:41:36.595Z,102691.34
2023-03-02T05:44:04.726Z,102693.97
2023-03-02T05:46:31.941Z,102687.84
2023-03-02T05:48:58.797Z,102682.00
2023-03-02T05:51:25.594Z,102693.19
2023-03-02T05:53:52.520Z,102663.84
2023-03-02T05:56:20.783Z,102676.84
2023-03-02T05:58:47.415Z,102687.94
2023-03-02T06:01:15.557Z,102684.72
2023-03-02T06:03:43.618Z,102683.03
2023-03-02T06:06:14.274Z,102696.00
2023-03-02T06:08:42.404Z,102705.44
2023-03-02T06:11:09.974Z,102706.19
2023-03-02T06:13:36.875Z,102674.47
2023-03-02T06:16:04.055Z,102705.44
2023-03-02T06:18:30.976Z,102711.41
2023-03-02T06:20:58.066Z,102666.00
2023-03-02T06:23:24.944Z,102722.88
2023-03-02T06:25:51.662Z,102673.72
2023-03-02T06:28:22.110Z,102715.94
2023-03-02T06:30:49.974Z,102715.97
2023-03-02T06:33:18.163Z,102687.50
2023-03-02T06:35:45.880Z,102722.94
2023-03-02T06:38:13.148Z,102712.47
2023-03-02T06:40:39.864Z,102707.25
2023-03-02T06:43:06.599Z,102705.34
2023-03-02T06:45:36.170Z,102683.84
2023-03-02T06:48:03.529Z,102691.59
2023-03-02T06:50:30.716Z,102685.63
2023-03-02T06:52:57.625Z,102660.50
2023-03-02T06:55:24.441Z,102699.28
2023-03-02T06:57:51.408Z,102693.28
2023-03-02T07:00:25.881Z,102696.63
2023-03-02T07:02:53.880Z,102685.56
2023-03-02T07:05:21.508Z,102678.66
2023-03-02T07:07:48.198Z,102672.50
2023-03-02T07:10:15.799Z,102694.84
2023-03-02T07:12:42.747Z,102685.41
2023-03-02T07:15:12.299Z,102699.13
2023-03-02T07:17:40.855Z,102659.50
2023-03-02T07:20:09.037Z,102677.44
2023-03-02T07:22:36.044Z,102675.03
2023-03-02T07:25:02.896Z,102693.03
2023-03-02T07:27:29.669Z,102681.09
2023-03-02T07:29:56.301Z,102670.75
2023-03-02T07:32:23.216Z,102695.63
2023-03-02T07:34:50.034Z,102665.41
2023-03-02T07:37:16.708Z,102695.59
2023-03-02T07:39:43.449Z,102674.72
2023-03-02T07:42:12.544Z,102694.47
2023-03-02T07:44:39.308Z,102681.63
2023-03-02T07:47:06.417Z,102704.03
2023-03-02T07:49:35.306Z,102673.88
2023-03-02T07:52:03.136Z,102711.97
2023-03-02T07:54:30.632Z,102706.81
2023-03-02T07:56:58.411Z,102680.19
2023-03-02T07:59:25.851Z,102698.34
2023-03-02T08:01:52.832Z,102712.13
2023-03-02T08:04:19.959Z,102673.44
2023-03-02T08:06:46.811Z,102692.25
2023-03-02T08:09:15.765Z,102682.00
2023-03-02T08:11:43.652Z,102694.06
2023-03-02T08:14:10.645Z,102716.44
2023-03-02T08:16:39.067Z,102712.13
2023-03-02T08:19:06.022Z,102707.78
2023-03-02T08:21:33.854Z,102687.94
2023-03-02T08:24:01.151Z,102697.34
2023-03-02T08:26:28.013Z,102618.88
2023-03-02T08:28:55.309Z,102706.72
2023-03-02T08:31:22.439Z,102685.91
2023-03-02T08:33:49.750Z,102686.69
2023-03-02T08:36:18.884Z,102670.91
2023-03-02T08:38:46.925Z,102691.50
2023-03-02T08:41:17.138Z,102694.06
2023-03-02T08:43:44.138Z,102701.03
2023-03-02T08:46:12.847Z,102700.13
2023-03-02T08:48:40.137Z,102700.13
2023-03-02T08:51:16.063Z,102700.94
2023-03-02T08:53:46.295Z,102674.94
2023-03-02T08:56:28.749Z,102655.03
2023-03-02T08:58:58.841Z,102692.16
2023-03-02T09:01:29.935Z,102697.38
2023-03-02T09:03:59.917Z,102700.75
2023-03-02T09:06:29.615Z,102693.88
2023-03-02T09:08:57.810Z,102695.47
2023-03-02T09:11:25.217Z,102658.47
2023-03-02T09:13:52.181Z,102695.25
2023-03-02T09:16:20.549Z,102684.78
2023-03-02T09:18:48.036Z,102687.41
2023-03-02T09:21:14.797Z,102688.09
2023-03-02T09:23:41.997Z,102679.44
2023-03-02T09:26:09.509Z,102673.31
2023-03-02T09:28:37.014Z,102667.22
2023-03-02T09:31:06.039Z,102680.84
2023-03-02T09:33:33.700Z,102637.56
2023-03-02T09:36:01.570Z,102682.03
2023-03-02T09:38:28.397Z,102655.28
2023-03-02T09:41:19.075Z,102682.56
2023-03-02T09:43:51.684Z,102682.69
2023-03-02T09:46:45.536Z,102656.06
2023-03-02T09:49:37.809Z,102647.34
2023-03-02T09:52:31.761Z,102688.59
2023-03-02T09:55:19.803Z,102681.47
2023-03-02T09:57:47.211Z,102647.47
2023-03-02T10:00:20.430Z,102680.78
2023-03-02T10:03:05.143Z,102678.72
2023-03-02T10:05:43.975Z,102682.81
2023-03-02T10:08:24.704Z,102697.28
2023-03-02T10:10:58.076Z,102690.00
2023-03-02T10:13:29.797Z,102696.66
2023-03-02T10:15:56.673Z,102698.31
2023-03-02T10:18:47.033Z,102616.56
2023-03-02T10:21:32.051Z,102692.09
2023-03-02T10:24:11.299Z,102706.63
2023-03-02T10:26:48.385Z,102710.53
2023-03-02T10:29:36.624Z,102711.94
2023-03-02T10:32:20.883Z,102711.75
2023-03-02T10:34:50.212Z,102704.00
2023-03-02T10:37:21.654Z,102699.44
2023-03-02T10:39:49.412Z,102700.91
2023-03-02T10:42:20.949Z,102692.19
2023-03-02T10:44:55.086Z,102691.38
2023-03-02T10:47:27.959Z,102675.84
2023-03-02T10:49:56.506Z,102627.75
2023-03-02T10:52:25.968Z,102701.31
2023-03-02T10:55:07.397Z,102701.97
2023-03-02T10:57:42.173Z,102679.53
2023-03-02T11:00:22.473Z,102699.50
2023-03-02T11:03:04.600Z,102690.81
2023-03-02T11:05:33.281Z,102689.63
2023-03-02T11:08:02.701Z,102681.63
2023-03-02T11:10:32.751Z,102652.34
2023-03-02T11:13:02.108Z,102690.94
2023-03-02T11:15:48.876Z,102686.16
2023-03-02T11:18:47.109Z,102686.06
2023-03-02T11:21:20.795Z,102673.84
2023-03-02T11:24:37.012Z,102680.38
2023-03-02T11:27:20.271Z,102610.00
2023-03-02T11:29:56.168Z,102670.22
2023-03-02T11:32:34.751Z,102675.38
2023-03-02T11:35:10.042Z,102662.91
2023-03-02T11:37:39.546Z,102668.59
2023-03-02T11:40:09.277Z,102672.47
2023-03-02T11:42:42.159Z,102651.53
2023-03-02T11:45:16.870Z,102677.16
2023-03-02T11:48:02.146Z,102671.91
2023-03-02T11:50:32.444Z,102653.03
2023-03-02T11:53:04.156Z,102665.03
2023-03-02T11:55:38.216Z,102665.97
2023-03-02T11:58:05.980Z,102633.53
2023-03-02T12:00:42.599Z,102650.91
2023-03-02T12:03:15.262Z,102663.13
2023-03-02T12:05:45.266Z,102660.53
2023-03-02T12:08:21.346Z,102660.50
2023-03-02T12:10:59.584Z,102656.19
2023-03-02T12:13:30.456Z,102655.28
2023-03-02T12:15:57.619Z,102645.69
2023-03-02T12:18:24.882Z,102656.69
2023-03-02T12:21:03.878Z,102653.88
2023-03-02T12:23:33.161Z,102651.97
2023-03-02T12:26:23.501Z,102650.97
2023-03-02T12:29:07.558Z,102648.13
2023-03-02T12:31:44.851Z,102640.34
2023-03-02T12:34:43.104Z,102637.50
2023-03-02T12:37:26.213Z,102629.63
2023-03-02T12:40:14.265Z,102634.47
2023-03-02T12:42:49.802Z,102626.34
2023-03-02T12:45:22.363Z,102641.16
2023-03-02T12:47:57.392Z,102627.09
2023-03-02T12:50:27.671Z,102629.41
2023-03-02T12:52:58.808Z,102608.66
2023-03-02T12:55:25.562Z,102633.09
2023-03-02T12:57:58.060Z,102602.97
2023-03-02T13:00:33.782Z,102587.63
2023-03-02T13:03:07.264Z,102588.59
2023-03-02T13:05:36.185Z,102598.88
2023-03-02T13:08:08.236Z,102605.91
2023-03-02T13:10:40.555Z,102609.44
2023-03-02T13:13:43.645Z,102598.81
2023-03-02T13:16:37.205Z,102598.81
2023-03-02T13:19:14.886Z,102582.03
2023-03-02T13:21:42.122Z,102562.97
2023-03-02T13:24:47.042Z,102578.31
2023-03-02T13:27:20.772Z,102582.19
2023-03-02T13:29:48.588Z,102578.97
2023-03-02T13:32:27.331Z,102580.00
2023-03-02T13:34:59.609Z,102574.78
2023-03-02T13:37:39.303Z,102581.75
2023-03-02T13:40:27.116Z,102560.09
2023-03-02T13:42:54.944Z,102540.28
2023-03-02T13:45:28.012Z,102569.44
2023-03-02T13:47:57.522Z,102550.44
2023-03-02T13:50:30.115Z,102569.13
2023-03-02T13:53:01.850Z,102564.78
2023-03-02T13:55:28.832Z,102542.28
2023-03-02T13:57:56.322Z,102533.59
2023-03-02T14:00:28.673Z,102551.53
2023-03-02T14:02:55.409Z,102528.13
2023-03-02T14:05:26.722Z,102539.97
2023-03-02T14:07:53.643Z,102541.34
2023-03-02T14:10:21.046Z,102528.13
2023-03-02T14:13:05.454Z,102513.31
2023-03-02T14:15:32.802Z,102533.50
2023-03-02T14:18:00.592Z,102503.91
2023-03-02T14:20:27.624Z,102517.28
2023-03-02T14:22:54.344Z,102527.28
2023-03-02T14:25:21.113Z,102522.13
2023-03-02T14:27:48.085Z,102526.97
2023-03-02T14:30:20.712Z,102514.78
2023-03-02T14:32:47.496Z,102522.28
2023-03-02T14:35:16.833Z,102513.28
2023-03-02T14:37:49.567Z,102526.09
2023-03-02T14:40:26.810Z,102502.16
2023-03-02T14:42:53.927Z,102487.25
2023-03-02T14:45:21.447Z,102500.97
2023-03-02T14:47:49.032Z,102495.44
2023-03-02T14:50:19.330Z,102503.94
2023-03-02T14:52:50.067Z,102500.84
2023-03-02T14:55:27.028Z,102489.59
2023-03-02T14:57:57.798Z,102492.00
2023-03-02T15:00:25.148Z,102516.59
2023-03-02T15:02:52.047Z,102525.38
2023-03-02T15:05:19.044Z,102511.28
2023-03-02T15:07:46.689Z,102514.72
2023-03-02T15:10:16.974Z,102508.47
2023-03-02T15:12:43.852Z,102445.28
2023-03-02T15:15:11.721Z,102490.25
2023-03-02T15:17:38.838Z,102511.63
2023-03-02T15:20:06.571Z,102498.78
2023-03-02T15:22:34.417Z,102489.28
2023-03-02T15:25:01.118Z,102489.34
2023-03-02T15:27:27.933Z,102494.50
2023-03-02T15:29:56.798Z,102497.63
2023-03-02T15:32:23.686Z,102513.22
2023-03-02T15:34:50.673Z,102479.81
2023-03-02T15:37:17.525Z,102494.22
2023-03-02T15:39:44.609Z,102491.97
2023-03-02T15:42:13.498Z,102499.03
2023-03-02T15:44:40.597Z,102479.25
2023-03-02T15:47:07.345Z,102474.50
2023-03-02T15:49:34.184Z,102469.78
2023-03-02T15:52:00.950Z,102484.91
2023-03-02T15:54:28.956Z,102500.31
2023-03-02T15:56:56.250Z,102506.50
2023-03-02T15:59:25.233Z,102509.25
2023-03-02T16:01:52.992Z,102480.91
2023-03-02T16:04:20.403Z,102504.25
2023-03-02T16:06:47.423Z,102486.34
2023-03-02T16:09:14.146Z,102448.56
2023-03-02T16:11:40.981Z,102466.78
2023-03-02T16:14:07.750Z,102475.56
2023-03-02T16:16:34.698Z,102493.66
2023-03-02T16:19:01.684Z,102486.94
2023-03-02T16:21:28.944Z,102506.91
2023-03-02T16:24:03.352Z,102503.53
2023-03-02T16:26:33.550Z,102447.34
2023-03-02T16:29:01.055Z,102509.13
2023-03-02T16:31:29.369Z,102518.00
2023-03-02T16:33:57.627Z,102475.25
2023-03-02T16:36:24.780Z,102439.56
2023-03-02T16:38:52.097Z,102494.47
2023-03-02T16:41:21.694Z,102493.13
2023-03-02T16:43:54.367Z,102518.25
2023-03-02T16:46:23.137Z,102506.47
2023-03-02T16:48:50.831Z,102488.47
2023-03-02T16:51:19.654Z,102509.31
2023-03-02T16:53:46.876Z,102477.91
2023-03-02T16:56:14.693Z,102511.50
2023-03-02T16:58:42.045Z,102501.38
2023-03-02T17:01:11.486Z,102494.84
2023-03-02T17:03:38.228Z,102519.13
2023-03-02T17:06:06.877Z,102521.13
2023-03-02T17:08:34.101Z,102494.16
2023-03-02T17:11:01.097Z,102505.63
2023-03-02T17:13:28.204Z,102499.91
2023-03-02T17:15:55.148Z,102534.53
2023-03-02T17:18:21.910Z,102532.47
2023-03-02T17:20:52.510Z,102545.47
2023-03-02T17:23:19.262Z,102524.34
2023-03-02T17:25:46.076Z,102554.63
2023-03-02T17:28:14.973Z,102550.56
2023-03-02T17:30:42.852Z,102562.00
2023-03-02T17:33:10.562Z,102551.81
2023-03-02T17:35:37.965Z,102517.75
2023-03-02T17:38:05.155Z,102499.19
2023-03-02T17:40:32.272Z,102526.63
2023-03-02T17:42:59.245Z,102552.66
2023-03-02T17:45:27.976Z,102528.88
2023-03-02T17:47:56.326Z,102568.50
2023-03-02T17:50:23.640Z,102560.16
2023-03-02T17:52:50.480Z,102530.25
2023-03-02T17:55:17.320Z,102531.31
2023-03-02T17:57:44.375Z,102546.63
2023-03-02T18:00:16.457Z,102560.63
2023-03-02T18:02:43.307Z,102534.84
2023-03-02T18:05:11.151Z,102567.75
2023-03-02T18:07:38.144Z,102572.19
2023-03-02T18:10:06.396Z,102583.53
2023-03-02T18:12:33.845Z,102583.63
2023-03-02T18:15:00.729Z,102545.91
2023-03-02T18:17:27.522Z,102576.03
2023-03-02T18:19:54.465Z,102553.00
2023-03-02T18:22:22.057Z,102551.34
2023-03-02T18:24:50.510Z,102565.22
2023-03-02T18:27:17.619Z,102563.50
2023-03-02T18:29:44.485Z,102553.38
2023-03-02T18:32:11.772Z,102591.31
2023-03-02T18:34:39.021Z,102583.69
2023-03-02T18:37:06.070Z,102582.94
2023-03-02T18:39:32.857Z,102577.97
2023-03-02T18:41:59.887Z,102584.06
2023-03-02T18:44:28.394Z,102588.47
2023-03-02T18:46:55.806Z,102557.59
2023-03-02T18:49:23.220Z,102551.66
2023-03-02T18:51:50.585Z,102598.13
2023-03-02T18:54:17.420Z,102587.78
2023-03-02T18:56:44.776Z,102520.06
2023-03-02T18:59:13.300Z,102603.56
2023-03-02T19:01:40.246Z,102603.59
2023-03-02T19:04:07.256Z,102559.84
2023-03-02T19:06:34.304Z,102582.16
2023-03-02T19:09:01.055Z,102579.75
2023-03-02T19:11:28.025Z,102591.09
2023-03-02T19:13:55.026Z,102577.34
2023-03-02T19:16:21.832Z,102601.44
2023-03-02T19:18:48.942Z,102598.22
2023-03-02T19:21:16.713Z,102606.94
2023-03-02T19:23:45.572Z,102533.22
2023-03-02T19:26:13.179Z,102597.75
2023-03-02T19:28:40.101Z,102599.59
2023-03-02T19:31:09.393Z,102604.84
2023-03-02T19:33:36.841Z,102608.34
2023-03-02T19:36:04.625Z,102610.13
2023-03-02T19:38:31.522Z,102569.88
2023-03-02T19:40:59.788Z,102612.13
2023-03-02T19:43:27.551Z,102611.38
2023-03-02T19:45:54.293Z,102610.59
2023-03-02T19:48:21.381Z,102611.53
2023-03-02T19:50:48.487Z,102577.09
2023-03-02T19:53:17.151Z,102601.22
2023-03-02T19:55:44.828Z,102614.16
2023-03-02T19:58:17.191Z,102609.78
2023-03-02T20:00:44.507Z,102615.84
2023-03-02T20:03:11.598Z,102617.69
2023-03-02T20:05:38.440Z,102607.38
2023-03-02T20:08:06.467Z,102616.78
2023-03-02T20:10:36.900Z,102602.94
2023-03-02T20:13:04.773Z,102606.53
2023-03-02T20:15:33.564Z,102619.59
2023-03-02T20:18:02.460Z,102568.97
2023-03-02T20:20:30.558Z,102611.84
2023-03-02T20:22:57.777Z,102626.72
2023-03-02T20:25:24.605Z,102624.28
2023-03-02T20:27:51.963Z,102633.84
2023-03-02T20:30:28.146Z,102644.22
2023-03-02T20:32:55.828Z,102639.91
2023-03-02T20:35:23.379Z,102637.38
2023-03-02T20:37:51.415Z,102643.59
2023-03-02T20:40:19.449Z,102637.56
2023-03-02T20:42:46.195Z,102612.66
2023-03-02T20:45:13.843Z,102575.00
2023-03-02T20:47:42.031Z,102642.09
2023-03-02T20:50:13.597Z,102646.41
2023-03-02T20:52:40.465Z,102632.63
2023-03-02T20:55:08.757Z,102634.28
2023-03-02T20:57:35.645Z,102631.78
2023-03-02T21:00:05.299Z,102608.75
2023-03-02T21:02:32.542Z,102619.97
2023-03-02T21:04:59.313Z,102614.75
2023-03-02T21:07:26.131Z,102570.94
2023-03-02T21:09:52.928Z,102637.09
2023-03-02T21:12:19.604Z,102636.47
2023-03-02T21:14:46.697Z,102625.25
2023-03-02T21:17:13.527Z,102640.00
2023-03-02T21:19:40.240Z,102634.81
2023-03-02T21:22:07.172Z,102598.84
2023-03-02T21:24:34.102Z,102639.22
2023-03-02T21:27:02.580Z,102634.97
2023-03-02T21:29:29.837Z,102620.34
2023-03-02T21:31:56.833Z,102628.94
2023-03-02T21:34:23.761Z,102625.41
2023-03-02T21:36:53.805Z,102636.50
2023-03-02T21:39:23.566Z,102629.56
2023-03-02T21:41:50.716Z,102594.34
2023-03-02T21:44:17.679Z,102569.41
2023-03-02T21:46:44.641Z,102637.44
2023-03-02T21:49:16.160Z,102604.69
2023-03-02T21:51:43.205Z,102601.22
2023-03-02T21:54:10.382Z,102639.13
2023-03-02T21:56:37.497Z,102614.97
2023-03-02T21:59:04.414Z,102609.72
2023-03-02T22:01:33.001Z,102623.34
2023-03-02T22:04:00.678Z,102609.66
2023-03-02T22:06:32.189Z,102619.13
2023-03-02T22:08:59.405Z,102630.16
2023-03-02T22:11:29.235Z,102632.78
2023-03-02T22:13:58.632Z,102624.88
2023-03-02T22:16:34.703Z,102633.50
2023-03-02T22:19:02.112Z,102589.59
2023-03-02T22:21:31.839Z,102630.81
2023-03-02T22:24:19.033Z,102622.94
2023-03-02T22:26:49.838Z,102629.00
2023-03-02T22:29:23.366Z,102628.25
2023-03-02T22:31:52.734Z,102634.22
2023-03-02T22:34:25.131Z,102622.94
2023-03-02T23:11:54.210Z,102614.75
2023-03-02T23:14:41.084Z,102624.28
2023-03-02T23:17:21.682Z,102609.50
2023-03-02T23:19:50.066Z,102619.16
2023-03-02T23:22:17.188Z,102612.31
2023-03-02T23:24:43.941Z,102611.47
2023-03-02T23:27:11.763Z,102617.50
2023-03-02T23:29:38.498Z,102614.78
2023-03-02T23:32:05.609Z,102601.09
2023-03-02T23:34:32.470Z,102618.94
2023-03-02T23:36:59.604Z,102605.94
2023-03-02T23:39:26.922Z,102617.00
2023-03-02T23:41:53.850Z,102592.75
2023-03-02T23:44:20.918Z,102620.22
2023-03-02T23:46:48.332Z,102611.50
2023-03-02T23:49:15.587Z,102610.63
2023-03-02T23:51:42.289Z,102593.66
2023-03-02T23:54:09.551Z,102607.41
2023-03-02T23:56:36.438Z,102622.06
2023-03-02T23:59:03.425Z,102608.09
